sensor_id;sensor_type;location;lat;lon;timestamp;temperature;humidity
25360;DHT22;13311;51.386;0.016;2023-08-07T00:01:47;18.70;88.20
25360;DHT22;13311;51.386;0.016;2023-08-07T00:06:48;18.60;88.50
25360;DHT22;13311;51.386;0.016;2023-08-07T00:11:49;18.60;88.70
25360;DHT22;13311;51.386;0.016;2023-08-07T00:16:49;18.60;88.90
25360;DHT22;13311;51.386;0.016;2023-08-07T00:21:50;18.60;89.10
25360;DHT22;13311;51.386;0.016;2023-08-07T00:26:51;18.60;89.00
25360;DHT22;13311;51.386;0.016;2023-08-07T00:31:51;18.60;89.00
25360;DHT22;13311;51.386;0.016;2023-08-07T00:36:52;18.50;89.10
25360;DHT22;13311;51.386;0.016;2023-08-07T00:41:53;18.50;89.10
25360;DHT22;13311;51.386;0.016;2023-08-07T00:46:54;18.40;89.40
25360;DHT22;13311;51.386;0.016;2023-08-07T00:51:55;18.30;90.20
25360;DHT22;13311;51.386;0.016;2023-08-07T00:56:59;18.20;90.00
25360;DHT22;13311;51.386;0.016;2023-08-07T01:02:06;18.10;90.20
25360;DHT22;13311;51.386;0.016;2023-08-07T01:07:06;18.10;90.30
25360;DHT22;13311;51.386;0.016;2023-08-07T01:17:14;17.90;90.40
25360;DHT22;13311;51.386;0.016;2023-08-07T01:22:17;17.90;90.50
25360;DHT22;13311;51.386;0.016;2023-08-07T01:32:31;17.80;90.60
25360;DHT22;13311;51.386;0.016;2023-08-07T01:37:50;17.70;90.80
25360;DHT22;13311;51.386;0.016;2023-08-07T01:42:52;17.70;91.00
25360;DHT22;13311;51.386;0.016;2023-08-07T01:47:53;17.60;91.10
25360;DHT22;13311;51.386;0.016;2023-08-07T01:52:54;17.50;91.10
25360;DHT22;13311;51.386;0.016;2023-08-07T01:57:55;17.60;91.10
25360;DHT22;13311;51.386;0.016;2023-08-07T02:02:55;17.40;91.20
25360;DHT22;13311;51.386;0.016;2023-08-07T02:07:56;17.30;91.50
25360;DHT22;13311;51.386;0.016;2023-08-07T02:12:57;17.20;91.70
25360;DHT22;13311;51.386;0.016;2023-08-07T02:17:59;17.10;91.80
25360;DHT22;13311;51.386;0.016;2023-08-07T02:23:00;17.10;92.00
25360;DHT22;13311;51.386;0.016;2023-08-07T02:28:00;17.00;92.10
25360;DHT22;13311;51.386;0.016;2023-08-07T02:33:01;16.90;92.20
25360;DHT22;13311;51.386;0.016;2023-08-07T02:38:02;16.80;92.40
25360;DHT22;13311;51.386;0.016;2023-08-07T02:43:02;16.70;92.50
25360;DHT22;13311;51.386;0.016;2023-08-07T02:48:04;16.70;92.60
25360;DHT22;13311;51.386;0.016;2023-08-07T02:53:04;16.70;92.70
25360;DHT22;13311;51.386;0.016;2023-08-07T02:58:05;16.60;92.80
25360;DHT22;13311;51.386;0.016;2023-08-07T03:03:06;16.60;92.90
25360;DHT22;13311;51.386;0.016;2023-08-07T03:08:06;16.50;93.00
25360;DHT22;13311;51.386;0.016;2023-08-07T03:13:07;16.50;93.20
25360;DHT22;13311;51.386;0.016;2023-08-07T03:18:08;16.40;93.30
25360;DHT22;13311;51.386;0.016;2023-08-07T03:23:09;16.40;93.40
25360;DHT22;13311;51.386;0.016;2023-08-07T03:28:10;16.40;93.40
25360;DHT22;13311;51.386;0.016;2023-08-07T03:33:11;16.30;93.40
25360;DHT22;13311;51.386;0.016;2023-08-07T03:38:12;16.30;93.60
25360;DHT22;13311;51.386;0.016;2023-08-07T03:43:12;16.30;93.60
25360;DHT22;13311;51.386;0.016;2023-08-07T03:48:13;16.20;93.60
25360;DHT22;13311;51.386;0.016;2023-08-07T03:53:14;16.20;93.60
25360;DHT22;13311;51.386;0.016;2023-08-07T03:58:14;16.20;93.70
25360;DHT22;13311;51.386;0.016;2023-08-07T04:03:15;16.20;93.80
25360;DHT22;13311;51.386;0.016;2023-08-07T04:08:16;16.20;93.80
25360;DHT22;13311;51.386;0.016;2023-08-07T04:13:16;16.10;94.20
25360;DHT22;13311;51.386;0.016;2023-08-07T04:18:17;16.10;93.90
25360;DHT22;13311;51.386;0.016;2023-08-07T04:23:18;16.00;94.00
25360;DHT22;13311;51.386;0.016;2023-08-07T04:28:19;16.00;94.00
25360;DHT22;13311;51.386;0.016;2023-08-07T04:33:20;15.90;94.00
25360;DHT22;13311;51.386;0.016;2023-08-07T04:38:22;15.90;94.00
25360;DHT22;13311;51.386;0.016;2023-08-07T04:43:22;15.80;94.00
25360;DHT22;13311;51.386;0.016;2023-08-07T04:48:23;15.70;94.20
25360;DHT22;13311;51.386;0.016;2023-08-07T04:53:25;15.70;94.30
25360;DHT22;13311;51.386;0.016;2023-08-07T04:58:26;15.60;94.30
25360;DHT22;13311;51.386;0.016;2023-08-07T05:03:27;15.60;94.40
25360;DHT22;13311;51.386;0.016;2023-08-07T05:08:28;15.60;94.50
25360;DHT22;13311;51.386;0.016;2023-08-07T05:13:29;15.60;94.40
25360;DHT22;13311;51.386;0.016;2023-08-07T05:18:29;15.70;94.20
25360;DHT22;13311;51.386;0.016;2023-08-07T05:23:30;15.70;94.20
25360;DHT22;13311;51.386;0.016;2023-08-07T05:28:31;15.70;94.30
25360;DHT22;13311;51.386;0.016;2023-08-07T05:33:31;15.90;94.50
25360;DHT22;13311;51.386;0.016;2023-08-07T05:38:32;16.00;94.80
25360;DHT22;13311;51.386;0.016;2023-08-07T05:43:33;16.40;95.60
25360;DHT22;13311;51.386;0.016;2023-08-07T05:48:33;17.30;95.00
25360;DHT22;13311;51.386;0.016;2023-08-07T05:53:35;18.50;93.40
25360;DHT22;13311;51.386;0.016;2023-08-07T05:58:36;19.70;91.70
25360;DHT22;13311;51.386;0.016;2023-08-07T06:03:37;20.70;89.80
25360;DHT22;13311;51.386;0.016;2023-08-07T06:08:38;21.70;86.40
25360;DHT22;13311;51.386;0.016;2023-08-07T06:13:40;22.70;84.70
25360;DHT22;13311;51.386;0.016;2023-08-07T06:18:41;23.60;80.80
25360;DHT22;13311;51.386;0.016;2023-08-07T06:23:41;24.30;78.30
25360;DHT22;13311;51.386;0.016;2023-08-07T06:28:42;24.90;75.60
25360;DHT22;13311;51.386;0.016;2023-08-07T06:33:43;25.40;74.40
25360;DHT22;13311;51.386;0.016;2023-08-07T06:38:44;25.90;72.50
25360;DHT22;13311;51.386;0.016;2023-08-07T06:43:45;26.30;72.00
25360;DHT22;13311;51.386;0.016;2023-08-07T06:48:45;26.90;68.00
25360;DHT22;13311;51.386;0.016;2023-08-07T06:53:46;27.10;68.30
25360;DHT22;13311;51.386;0.016;2023-08-07T06:58:47;27.30;68.30
25360;DHT22;13311;51.386;0.016;2023-08-07T07:03:47;27.40;65.60
25360;DHT22;13311;51.386;0.016;2023-08-07T07:08:52;27.30;66.30
25360;DHT22;13311;51.386;0.016;2023-08-07T07:13:56;27.40;65.70
25360;DHT22;13311;51.386;0.016;2023-08-07T07:18:56;27.20;64.40
25360;DHT22;13311;51.386;0.016;2023-08-07T07:23:58;26.90;64.50
25360;DHT22;13311;51.386;0.016;2023-08-07T07:28:59;26.70;65.30
25360;DHT22;13311;51.386;0.016;2023-08-07T07:33:59;26.50;66.30
25360;DHT22;13311;51.386;0.016;2023-08-07T07:39:00;26.20;67.30
25360;DHT22;13311;51.386;0.016;2023-08-07T07:44:01;26.10;67.70
25360;DHT22;13311;51.386;0.016;2023-08-07T07:49:02;25.90;68.30
25360;DHT22;13311;51.386;0.016;2023-08-07T07:54:05;25.70;68.50
25360;DHT22;13311;51.386;0.016;2023-08-07T07:59:05;25.60;67.50
25360;DHT22;13311;51.386;0.016;2023-08-07T08:04:06;25.30;69.40
25360;DHT22;13311;51.386;0.016;2023-08-07T08:09:07;25.00;70.80
25360;DHT22;13311;51.386;0.016;2023-08-07T08:14:10;24.90;71.80
25360;DHT22;13311;51.386;0.016;2023-08-07T08:19:10;24.50;73.60
25360;DHT22;13311;51.386;0.016;2023-08-07T08:24:11;24.50;74.20
25360;DHT22;13311;51.386;0.016;2023-08-07T08:29:14;24.40;74.90
25360;DHT22;13311;51.386;0.016;2023-08-07T08:34:15;24.50;75.10
25360;DHT22;13311;51.386;0.016;2023-08-07T08:39:16;24.50;75.10
25360;DHT22;13311;51.386;0.016;2023-08-07T08:44:19;24.50;75.80
25360;DHT22;13311;51.386;0.016;2023-08-07T08:49:25;24.50;76.30
25360;DHT22;13311;51.386;0.016;2023-08-07T08:54:30;24.60;76.70
25360;DHT22;13311;51.386;0.016;2023-08-07T08:59:33;24.70;76.80
25360;DHT22;13311;51.386;0.016;2023-08-07T09:04:34;24.80;75.20
25360;DHT22;13311;51.386;0.016;2023-08-07T09:09:35;25.00;75.10
25360;DHT22;13311;51.386;0.016;2023-08-07T09:14:37;24.90;76.20
25360;DHT22;13311;51.386;0.016;2023-08-07T09:19:39;25.10;74.80
25360;DHT22;13311;51.386;0.016;2023-08-07T09:24:40;25.30;74.30
25360;DHT22;13311;51.386;0.016;2023-08-07T09:29:41;25.50;75.10
25360;DHT22;13311;51.386;0.016;2023-08-07T09:34:42;25.50;73.70
25360;DHT22;13311;51.386;0.016;2023-08-07T09:39:43;25.50;75.70
25360;DHT22;13311;51.386;0.016;2023-08-07T09:44:44;25.60;75.70
25360;DHT22;13311;51.386;0.016;2023-08-07T09:49:54;25.70;74.60
25360;DHT22;13311;51.386;0.016;2023-08-07T09:54:57;26.00;75.60
25360;DHT22;13311;51.386;0.016;2023-08-07T10:00:00;26.20;71.50
25360;DHT22;13311;51.386;0.016;2023-08-07T10:05:00;26.30;73.90
25360;DHT22;13311;51.386;0.016;2023-08-07T10:10:06;26.30;72.10
25360;DHT22;13311;51.386;0.016;2023-08-07T10:15:08;26.20;74.50
25360;DHT22;13311;51.386;0.016;2023-08-07T10:20:09;26.20;73.70
25360;DHT22;13311;51.386;0.016;2023-08-07T10:25:11;26.20;75.30
25360;DHT22;13311;51.386;0.016;2023-08-07T10:30:14;26.20;75.00
25360;DHT22;13311;51.386;0.016;2023-08-07T10:35:45;26.10;75.90
25360;DHT22;13311;51.386;0.016;2023-08-07T10:41:13;25.90;75.80
25360;DHT22;13311;51.386;0.016;2023-08-07T10:46:19;25.90;76.30
25360;DHT22;13311;51.386;0.016;2023-08-07T10:51:29;25.80;76.60
25360;DHT22;13311;51.386;0.016;2023-08-07T10:56:35;25.90;77.10
25360;DHT22;13311;51.386;0.016;2023-08-07T11:01:42;25.90;75.10
25360;DHT22;13311;51.386;0.016;2023-08-07T11:06:46;25.80;75.90
25360;DHT22;13311;51.386;0.016;2023-08-07T11:11:48;25.80;77.30
25360;DHT22;13311;51.386;0.016;2023-08-07T11:16:49;25.70;72.90
25360;DHT22;13311;51.386;0.016;2023-08-07T11:21:50;25.80;69.50
25360;DHT22;13311;51.386;0.016;2023-08-07T11:26:51;25.90;70.20
25360;DHT22;13311;51.386;0.016;2023-08-07T11:31:53;26.10;66.40
25360;DHT22;13311;51.386;0.016;2023-08-07T11:36:54;26.30;70.40
25360;DHT22;13311;51.386;0.016;2023-08-07T11:42:00;26.40;67.10
25360;DHT22;13311;51.386;0.016;2023-08-07T11:47:00;26.60;65.10
25360;DHT22;13311;51.386;0.016;2023-08-07T11:52:01;26.80;67.50
25360;DHT22;13311;51.386;0.016;2023-08-07T11:57:02;27.00;68.40
25360;DHT22;13311;51.386;0.016;2023-08-07T12:02:09;27.20;71.90
25360;DHT22;13311;51.386;0.016;2023-08-07T12:07:17;27.20;66.20
25360;DHT22;13311;51.386;0.016;2023-08-07T12:12:19;27.30;62.70
25360;DHT22;13311;51.386;0.016;2023-08-07T12:17:21;27.40;66.30
25360;DHT22;13311;51.386;0.016;2023-08-07T12:22:22;27.60;66.30
25360;DHT22;13311;51.386;0.016;2023-08-07T12:27:23;27.70;61.00
25360;DHT22;13311;51.386;0.016;2023-08-07T12:32:24;27.50;61.10
25360;DHT22;13311;51.386;0.016;2023-08-07T12:37:24;27.40;60.80
25360;DHT22;13311;51.386;0.016;2023-08-07T12:42:25;27.50;60.40
25360;DHT22;13311;51.386;0.016;2023-08-07T12:47:25;27.40;58.60
25360;DHT22;13311;51.386;0.016;2023-08-07T12:52:26;27.50;60.20
25360;DHT22;13311;51.386;0.016;2023-08-07T12:57:27;27.50;62.20
25360;DHT22;13311;51.386;0.016;2023-08-07T13:02:27;27.30;61.80
25360;DHT22;13311;51.386;0.016;2023-08-07T13:07:28;27.40;65.50
25360;DHT22;13311;51.386;0.016;2023-08-07T13:12:29;27.50;55.70
25360;DHT22;13311;51.386;0.016;2023-08-07T13:17:29;27.60;62.20
25360;DHT22;13311;51.386;0.016;2023-08-07T13:22:30;27.80;62.00
25360;DHT22;13311;51.386;0.016;2023-08-07T13:27:32;27.90;60.00
25360;DHT22;13311;51.386;0.016;2023-08-07T13:32:33;27.90;60.90
25360;DHT22;13311;51.386;0.016;2023-08-07T13:37:34;27.90;59.20
25360;DHT22;13311;51.386;0.016;2023-08-07T13:42:34;28.10;64.80
25360;DHT22;13311;51.386;0.016;2023-08-07T13:47:35;28.00;56.00
25360;DHT22;13311;51.386;0.016;2023-08-07T13:52:37;28.00;60.20
25360;DHT22;13311;51.386;0.016;2023-08-07T13:57:38;27.90;63.80
25360;DHT22;13311;51.386;0.016;2023-08-07T14:02:39;27.90;66.30
25360;DHT22;13311;51.386;0.016;2023-08-07T14:07:39;27.90;59.90
25360;DHT22;13311;51.386;0.016;2023-08-07T14:12:40;27.80;56.40
25360;DHT22;13311;51.386;0.016;2023-08-07T14:17:41;27.70;58.40
25360;DHT22;13311;51.386;0.016;2023-08-07T14:22:41;27.70;67.50
25360;DHT22;13311;51.386;0.016;2023-08-07T14:27:42;27.50;67.50
25360;DHT22;13311;51.386;0.016;2023-08-07T14:32:43;27.40;67.20
25360;DHT22;13311;51.386;0.016;2023-08-07T14:37:44;27.40;68.20
25360;DHT22;13311;51.386;0.016;2023-08-07T14:42:47;27.40;67.30
25360;DHT22;13311;51.386;0.016;2023-08-07T14:47:47;27.30;57.90
25360;DHT22;13311;51.386;0.016;2023-08-07T14:52:48;27.50;68.30
25360;DHT22;13311;51.386;0.016;2023-08-07T14:57:49;27.50;61.60
25360;DHT22;13311;51.386;0.016;2023-08-07T15:02:49;27.50;64.20
25360;DHT22;13311;51.386;0.016;2023-08-07T15:07:50;27.40;58.10
25360;DHT22;13311;51.386;0.016;2023-08-07T15:12:51;27.30;64.30
25360;DHT22;13311;51.386;0.016;2023-08-07T15:17:51;27.30;67.40
25360;DHT22;13311;51.386;0.016;2023-08-07T15:22:52;27.30;66.90
25360;DHT22;13311;51.386;0.016;2023-08-07T15:27:53;27.30;66.00
25360;DHT22;13311;51.386;0.016;2023-08-07T15:32:56;27.40;67.60
25360;DHT22;13311;51.386;0.016;2023-08-07T15:37:57;27.30;60.10
25360;DHT22;13311;51.386;0.016;2023-08-07T15:43:00;27.20;64.10
25360;DHT22;13311;51.386;0.016;2023-08-07T15:48:01;27.20;63.50
25360;DHT22;13311;51.386;0.016;2023-08-07T15:53:02;27.10;66.20
25360;DHT22;13311;51.386;0.016;2023-08-07T15:58:03;27.20;65.30
25360;DHT22;13311;51.386;0.016;2023-08-07T16:03:06;27.30;66.50
25360;DHT22;13311;51.386;0.016;2023-08-07T16:08:07;27.20;63.90
25360;DHT22;13311;51.386;0.016;2023-08-07T16:13:07;27.20;64.50
25360;DHT22;13311;51.386;0.016;2023-08-07T16:18:08;27.10;59.80
25360;DHT22;13311;51.386;0.016;2023-08-07T16:23:09;27.00;62.90
25360;DHT22;13311;51.386;0.016;2023-08-07T16:28:09;27.00;63.80
25360;DHT22;13311;51.386;0.016;2023-08-07T16:33:10;27.00;64.20
25360;DHT22;13311;51.386;0.016;2023-08-07T16:38:11;27.00;62.40
25360;DHT22;13311;51.386;0.016;2023-08-07T16:43:12;26.90;60.80
25360;DHT22;13311;51.386;0.016;2023-08-07T16:48:12;26.80;63.60
25360;DHT22;13311;51.386;0.016;2023-08-07T16:53:13;26.70;61.30
25360;DHT22;13311;51.386;0.016;2023-08-07T16:58:15;26.60;65.90
25360;DHT22;13311;51.386;0.016;2023-08-07T17:03:16;26.50;65.70
25360;DHT22;13311;51.386;0.016;2023-08-07T17:08:17;26.50;62.60
25360;DHT22;13311;51.386;0.016;2023-08-07T17:13:18;26.20;60.50
25360;DHT22;13311;51.386;0.016;2023-08-07T17:18:19;26.10;60.90
25360;DHT22;13311;51.386;0.016;2023-08-07T17:23:19;25.90;60.80
25360;DHT22;13311;51.386;0.016;2023-08-07T17:28:20;25.80;61.00
25360;DHT22;13311;51.386;0.016;2023-08-07T17:33:22;25.80;62.80
25360;DHT22;13311;51.386;0.016;2023-08-07T17:38:23;25.70;62.80
25360;DHT22;13311;51.386;0.016;2023-08-07T17:43:23;25.50;62.30
25360;DHT22;13311;51.386;0.016;2023-08-07T17:48:24;25.30;63.00
25360;DHT22;13311;51.386;0.016;2023-08-07T17:53:25;25.40;67.00
25360;DHT22;13311;51.386;0.016;2023-08-07T17:58:26;25.40;65.10
25360;DHT22;13311;51.386;0.016;2023-08-07T18:03:27;25.20;66.10
25360;DHT22;13311;51.386;0.016;2023-08-07T18:08:27;25.10;67.30
25360;DHT22;13311;51.386;0.016;2023-08-07T18:13:29;25.10;67.30
25360;DHT22;13311;51.386;0.016;2023-08-07T18:18:30;25.30;64.70
25360;DHT22;13311;51.386;0.016;2023-08-07T18:23:31;25.30;66.50
25360;DHT22;13311;51.386;0.016;2023-08-07T18:28:32;25.30;62.40
25360;DHT22;13311;51.386;0.016;2023-08-07T18:33:33;25.30;65.20
25360;DHT22;13311;51.386;0.016;2023-08-07T18:38:34;25.40;66.90
25360;DHT22;13311;51.386;0.016;2023-08-07T18:43:34;25.20;61.30
25360;DHT22;13311;51.386;0.016;2023-08-07T18:48:35;25.10;61.30
25360;DHT22;13311;51.386;0.016;2023-08-07T18:53:36;25.10;63.70
25360;DHT22;13311;51.386;0.016;2023-08-07T18:58:38;24.90;61.70
25360;DHT22;13311;51.386;0.016;2023-08-07T19:03:39;24.70;63.40
25360;DHT22;13311;51.386;0.016;2023-08-07T19:08:40;24.60;63.30
25360;DHT22;13311;51.386;0.016;2023-08-07T19:13:40;24.40;62.40
25360;DHT22;13311;51.386;0.016;2023-08-07T19:18:41;24.10;63.80
25360;DHT22;13311;51.386;0.016;2023-08-07T19:23:42;24.00;63.40
25360;DHT22;13311;51.386;0.016;2023-08-07T19:28:42;24.00;63.10
25360;DHT22;13311;51.386;0.016;2023-08-07T19:33:43;23.90;63.00
25360;DHT22;13311;51.386;0.016;2023-08-07T19:38:44;23.70;63.20
25360;DHT22;13311;51.386;0.016;2023-08-07T19:43:45;23.50;61.00
25360;DHT22;13311;51.386;0.016;2023-08-07T19:48:48;23.20;60.00
25360;DHT22;13311;51.386;0.016;2023-08-07T19:53:48;23.10;60.30
25360;DHT22;13311;51.386;0.016;2023-08-07T19:58:49;22.90;60.90
25360;DHT22;13311;51.386;0.016;2023-08-07T20:03:50;22.80;61.70
25360;DHT22;13311;51.386;0.016;2023-08-07T20:08:50;22.60;63.80
25360;DHT22;13311;51.386;0.016;2023-08-07T20:13:51;22.50;61.60
25360;DHT22;13311;51.386;0.016;2023-08-07T20:18:52;22.40;61.90
25360;DHT22;13311;51.386;0.016;2023-08-07T20:23:52;22.30;62.60
25360;DHT22;13311;51.386;0.016;2023-08-07T20:28:53;22.20;62.20
25360;DHT22;13311;51.386;0.016;2023-08-07T20:33:55;22.00;62.70
25360;DHT22;13311;51.386;0.016;2023-08-07T20:38:58;21.90;63.70
25360;DHT22;13311;51.386;0.016;2023-08-07T20:43:59;21.80;64.60
25360;DHT22;13311;51.386;0.016;2023-08-07T20:49:00;21.60;65.00
25360;DHT22;13311;51.386;0.016;2023-08-07T20:54:00;21.50;66.20
25360;DHT22;13311;51.386;0.016;2023-08-07T20:59:01;21.30;66.60
25360;DHT22;13311;51.386;0.016;2023-08-07T21:04:02;21.20;67.30
25360;DHT22;13311;51.386;0.016;2023-08-07T21:09:03;21.10;68.30
25360;DHT22;13311;51.386;0.016;2023-08-07T21:14:04;21.10;68.20
25360;DHT22;13311;51.386;0.016;2023-08-07T21:19:05;21.00;68.50
25360;DHT22;13311;51.386;0.016;2023-08-07T21:24:08;20.90;68.50
25360;DHT22;13311;51.386;0.016;2023-08-07T21:29:11;20.90;69.00
25360;DHT22;13311;51.386;0.016;2023-08-07T21:34:12;20.90;69.10
25360;DHT22;13311;51.386;0.016;2023-08-07T21:39:13;20.70;69.40
25360;DHT22;13311;51.386;0.016;2023-08-07T21:44:13;20.70;69.60
25360;DHT22;13311;51.386;0.016;2023-08-07T21:49:14;20.60;70.50
25360;DHT22;13311;51.386;0.016;2023-08-07T21:54:15;20.50;70.70
25360;DHT22;13311;51.386;0.016;2023-08-07T21:59:15;20.50;71.20
25360;DHT22;13311;51.386;0.016;2023-08-07T22:04:16;20.40;71.40
25360;DHT22;13311;51.386;0.016;2023-08-07T22:09:17;20.40;71.30
25360;DHT22;13311;51.386;0.016;2023-08-07T22:14:18;20.30;72.00
25360;DHT22;13311;51.386;0.016;2023-08-07T22:19:18;20.20;72.10
25360;DHT22;13311;51.386;0.016;2023-08-07T22:24:20;20.10;72.90
25360;DHT22;13311;51.386;0.016;2023-08-07T22:29:20;20.00;73.10
25360;DHT22;13311;51.386;0.016;2023-08-07T22:34:21;20.00;74.10
25360;DHT22;13311;51.386;0.016;2023-08-07T22:39:22;20.00;73.20
25360;DHT22;13311;51.386;0.016;2023-08-07T22:44:22;20.00;73.80
25360;DHT22;13311;51.386;0.016;2023-08-07T22:49:24;19.90;73.70
25360;DHT22;13311;51.386;0.016;2023-08-07T22:54:24;19.90;73.90
25360;DHT22;13311;51.386;0.016;2023-08-07T22:59:25;19.90;73.40
25360;DHT22;13311;51.386;0.016;2023-08-07T23:04:26;19.80;73.80
25360;DHT22;13311;51.386;0.016;2023-08-07T23:09:26;19.70;74.50
25360;DHT22;13311;51.386;0.016;2023-08-07T23:14:27;19.70;74.60
25360;DHT22;13311;51.386;0.016;2023-08-07T23:19:29;19.70;75.00
25360;DHT22;13311;51.386;0.016;2023-08-07T23:24:29;19.60;75.50
25360;DHT22;13311;51.386;0.016;2023-08-07T23:29:30;19.50;76.00
25360;DHT22;13311;51.386;0.016;2023-08-07T23:34:31;19.40;76.30
25360;DHT22;13311;51.386;0.016;2023-08-07T23:39:31;19.40;76.30
25360;DHT22;13311;51.386;0.016;2023-08-07T23:44:32;19.30;76.80
25360;DHT22;13311;51.386;0.016;2023-08-07T23:49:33;19.20;77.10
25360;DHT22;13311;51.386;0.016;2023-08-07T23:54:34;19.20;77.50
25360;DHT22;13311;51.386;0.016;2023-08-07T23:59:35;19.20;77.60
